LEAL/ALC METAR and TAF weather

Enter ICAO airport designator
Station Type Date Time Source
LEAL METAR 2019/10/15 21:00 UTC NOAA

LEAL 152100Z 26005KT CAVOK 14/08 Q1020 NOSIG


Station Type Date Time Source
LEAL Decoded METAR 2019/10/15 21:00 UTC NOAA

Alicante / El Altet, Spain (LEAL) 38-17N 000-33W 31M
Oct 15, 2019 - 05:00 PM EDT / 2019.10.15 2100 UTC
Wind: from the W (260 degrees) at 6 MPH (5 KT):0
Visibility: greater than 7 mile(s):0
Temperature: 57 F (14 C)
Dew Point: 46 F (8 C)
Relative Humidity: 67%
Pressure (altimeter): 30.12 in. Hg (1020 hPa)
ob: LEAL 152100Z 26005KT CAVOK 14/08 Q1020 NOSIG
cycle: 21

Station Type Date Time Source
LEAL TAF 2019/10/15 18:27 UTC NOAA

TAF TAF LEAL 151700Z 1518/1618 30006KT 9999 FEW030 TX24/1612Z TN12/1606Z
BECMG 1610/1612 18010KT

Example: see airport list